Terminal Aerodrome Forecast
Issued by NWS Hastings, NE

Home | Current Version | Previous Version | Text Only | Print | Product List | Glossary On
Versions: 1 2 3 4 5 6 7 8 9 10 11 12
391
FTUS45 KGID 261720
TAFEAR
TAF
KEAR 261720Z 2618/2718 12009KT P6SM SCT030 BKN110
     FM270000 13009KT P6SM VCTS SCT020CB OVC060
     FM270600 13005KT 5SM BR VCTS OVC015CB
     FM270900 20005KT 1SM BR BKN008
     FM271200 00000KT 1SM BR OVC003
     FM271500 17004KT P6SM BKN008
     FM271700 16005KT P6SM SCT020
      AMD LTD TO CLD VIS AND WIND=

USA.gov is the U.S. government's official web portal to all federal, state and local government web resources and services.